Terminal Aerodrome Forecast
Issued by NWS Wilmington, OH

Current Version | Previous Version | Text Only | Print | Product List | Glossary Off
Versions: 1 2 3 4 5 6 7 8 9 10 11 12 13 14 15 16 17 18 19 20 21

463
FTUS41 KILN 300538
TAFCMH
TAF
KCMH 300538Z 3006/3106 06005KT P6SM SCT250
     FM301500 06005KT P6SM SCT250
     FM310000 VRB03KT P6SM BKN250=

USA.gov is the U.S. government's official web portal to all federal, state and local government web resources and services.